Almena, KS (67622)

10:57 PM CDT on May 22, 2015 (GMT -0500)
Prairie View, KS | | Change Station
CLOSE
Current Station
Personal Weather Station
Location: Prairie View, KS
Elevation: 2165 ft
Nearby Weather Stations

Elev 2165 ft 39.82 °N, 99.57 °W | Updated 3 minutes ago

Overcast
Overcast
53.4 °F
Feels Like 53.4 °F
N
13.0
Wind Variable Wind from East

Today
High -- | Low -- °F
--% Chance of Precip.
Yesterday
High -- | Low -- °F
Precip. -- in
6:18 AM 8:53 PM
Waxing Crescent, 26% visible
Pressure 30.08 in
Visibility 10.0 miles
Clouds Overcast 600 ft
Dew Point 53 °F
Humidity 99%
Rainfall 0.36 in
Snow Depth Not available.
UV 0 out of 12
Pollen 4.30 out of 12
Air Quality Not available.
Flu Activity No Activity
METAR KHLC 230253Z AUTO 13006KT 10SM OVC006 13/12 A3009 RMK AO2 CIG 003V009 SLP186 T01280122 55000

More Conditions Fewer Conditions

Pressure 30.08 in
Visibility 10.0 miles
Clouds Overcast 600 ft
Dew Point 53 °F
Humidity 99%
Rainfall 0.36 in
Snow Depth Not available.
UV 0 out of 12
Pollen 4.30 out of 12
Air Quality Not available.
Flu Activity No Activity
METAR KHLC 230253Z AUTO 13006KT 10SM OVC006 13/12 A3009 RMK AO2 CIG 003V009 SLP186 T01280122 55000

More Conditions Fewer Conditions

10-Day Weather Forecast

Almanac

Astronomy

May. 22, 2015 Rise Set
Actual Time
Civil Twilight
Nautical Twilight
Astronomical Twilight
Moon
Length of Visible Light
Length of Day
Tomorrow will be .
, % of the Moon is Illuminated

Today's Extremes

State Highs State Lows

Community

WunderPhotos

Upload Photos

1,823,383 photos uploaded!

WunderBlogs® & News

Nearby

Air Quality

  Air Quality AQ Index Pollutant
Not available.

Snow Depth

Station Depth Elevation

Earthquake Activity

City Distance Mag. Time & Date
Minimum magnitude displayed is 2.5.

Coastal Water Temperatures

Place Temperature

Stations

Nearby Weather Stations

Station Location Temp. Windchill Dew Point Humidity Wind Precip. Elev Updated Type